sensor_id;sensor_type;location;lat;lon;timestamp;temperature;humidity
17831;DHT22;9040;51.332;12.406;2022-07-21T00:01:20;28.40;73.50
17831;DHT22;9040;51.332;12.406;2022-07-21T00:03:47;28.40;72.70
17831;DHT22;9040;51.332;12.406;2022-07-21T00:06:14;28.40;72.90
17831;DHT22;9040;51.332;12.406;2022-07-21T00:08:41;28.40;72.80
17831;DHT22;9040;51.332;12.406;2022-07-21T00:11:09;28.40;70.50
17831;DHT22;9040;51.332;12.406;2022-07-21T00:13:36;28.40;70.80
17831;DHT22;9040;51.332;12.406;2022-07-21T00:16:04;28.40;70.40
17831;DHT22;9040;51.332;12.406;2022-07-21T00:18:31;28.40;71.20
17831;DHT22;9040;51.332;12.406;2022-07-21T00:20:58;28.20;72.50
17831;DHT22;9040;51.332;12.406;2022-07-21T00:23:26;28.10;72.10
17831;DHT22;9040;51.332;12.406;2022-07-21T00:25:54;28.00;72.40
17831;DHT22;9040;51.332;12.406;2022-07-21T00:28:22;27.90;73.00
17831;DHT22;9040;51.332;12.406;2022-07-21T00:30:49;27.90;74.00
17831;DHT22;9040;51.332;12.406;2022-07-21T00:33:15;27.80;75.10
17831;DHT22;9040;51.332;12.406;2022-07-21T00:35:42;27.80;76.70
17831;DHT22;9040;51.332;12.406;2022-07-21T00:38:09;27.70;77.70
17831;DHT22;9040;51.332;12.406;2022-07-21T00:40:36;27.70;79.20
17831;DHT22;9040;51.332;12.406;2022-07-21T00:43:03;27.60;80.30
17831;DHT22;9040;51.332;12.406;2022-07-21T00:45:31;27.60;81.00
17831;DHT22;9040;51.332;12.406;2022-07-21T00:47:58;27.60;82.40
17831;DHT22;9040;51.332;12.406;2022-07-21T00:50:25;27.60;84.40
17831;DHT22;9040;51.332;12.406;2022-07-21T00:52:52;27.50;86.40
17831;DHT22;9040;51.332;12.406;2022-07-21T00:55:20;27.40;88.30
17831;DHT22;9040;51.332;12.406;2022-07-21T00:57:48;27.30;90.10
17831;DHT22;9040;51.332;12.406;2022-07-21T01:00:18;27.30;90.50
17831;DHT22;9040;51.332;12.406;2022-07-21T01:02:46;27.30;91.10
17831;DHT22;9040;51.332;12.406;2022-07-21T01:05:14;27.20;91.70
17831;DHT22;9040;51.332;12.406;2022-07-21T01:07:43;27.20;92.20
17831;DHT22;9040;51.332;12.406;2022-07-21T01:10:10;27.10;92.70
17831;DHT22;9040;51.332;12.406;2022-07-21T01:12:38;27.10;93.40
17831;DHT22;9040;51.332;12.406;2022-07-21T01:15:06;27.10;94.20
17831;DHT22;9040;51.332;12.406;2022-07-21T01:17:34;27.00;95.00
17831;DHT22;9040;51.332;12.406;2022-07-21T01:20:05;26.90;95.60
17831;DHT22;9040;51.332;12.406;2022-07-21T01:22:36;26.80;96.50
17831;DHT22;9040;51.332;12.406;2022-07-21T01:25:04;26.80;97.40
17831;DHT22;9040;51.332;12.406;2022-07-21T01:27:31;26.80;98.10
17831;DHT22;9040;51.332;12.406;2022-07-21T01:29:58;26.80;98.70
17831;DHT22;9040;51.332;12.406;2022-07-21T01:32:26;26.80;99.40
17831;DHT22;9040;51.332;12.406;2022-07-21T01:34:53;26.70;99.90
17831;DHT22;9040;51.332;12.406;2022-07-21T01:37:21;26.70;99.90
17831;DHT22;9040;51.332;12.406;2022-07-21T01:39:50;26.70;99.90
17831;DHT22;9040;51.332;12.406;2022-07-21T01:42:36;26.70;99.90
17831;DHT22;9040;51.332;12.406;2022-07-21T01:45:04;26.70;99.90
17831;DHT22;9040;51.332;12.406;2022-07-21T01:47:32;26.60;99.90
17831;DHT22;9040;51.332;12.406;2022-07-21T01:49:59;26.50;99.90
17831;DHT22;9040;51.332;12.406;2022-07-21T01:52:26;26.50;99.90
17831;DHT22;9040;51.332;12.406;2022-07-21T01:54:54;26.40;99.90
17831;DHT22;9040;51.332;12.406;2022-07-21T01:57:21;26.40;99.90
17831;DHT22;9040;51.332;12.406;2022-07-21T01:59:48;26.40;99.90
17831;DHT22;9040;51.332;12.406;2022-07-21T02:02:15;26.30;99.90
17831;DHT22;9040;51.332;12.406;2022-07-21T02:04:46;26.30;99.90
17831;DHT22;9040;51.332;12.406;2022-07-21T02:07:13;26.30;99.90
17831;DHT22;9040;51.332;12.406;2022-07-21T02:09:40;26.30;99.90
17831;DHT22;9040;51.332;12.406;2022-07-21T02:12:08;26.20;99.90
17831;DHT22;9040;51.332;12.406;2022-07-21T02:14:35;26.20;99.90
17831;DHT22;9040;51.332;12.406;2022-07-21T02:17:02;26.20;99.90
17831;DHT22;9040;51.332;12.406;2022-07-21T02:19:29;26.20;99.90
17831;DHT22;9040;51.332;12.406;2022-07-21T02:21:56;26.20;99.90
17831;DHT22;9040;51.332;12.406;2022-07-21T02:24:23;26.20;99.90
17831;DHT22;9040;51.332;12.406;2022-07-21T02:26:50;26.10;99.90
17831;DHT22;9040;51.332;12.406;2022-07-21T02:29:18;26.10;99.90
17831;DHT22;9040;51.332;12.406;2022-07-21T02:31:45;26.20;99.90
17831;DHT22;9040;51.332;12.406;2022-07-21T02:34:12;26.10;99.90
17831;DHT22;9040;51.332;12.406;2022-07-21T02:36:39;26.20;99.90
17831;DHT22;9040;51.332;12.406;2022-07-21T02:39:06;26.10;99.90
17831;DHT22;9040;51.332;12.406;2022-07-21T02:41:33;26.10;99.90
17831;DHT22;9040;51.332;12.406;2022-07-21T02:43:59;26.10;99.90
17831;DHT22;9040;51.332;12.406;2022-07-21T02:46:28;26.00;99.90
17831;DHT22;9040;51.332;12.406;2022-07-21T02:48:54;26.10;99.90
17831;DHT22;9040;51.332;12.406;2022-07-21T02:51:21;26.00;99.90
17831;DHT22;9040;51.332;12.406;2022-07-21T02:53:48;26.00;99.90
17831;DHT22;9040;51.332;12.406;2022-07-21T02:56:15;26.00;99.90
17831;DHT22;9040;51.332;12.406;2022-07-21T02:58:43;26.00;99.90
17831;DHT22;9040;51.332;12.406;2022-07-21T03:01:10;25.90;99.90
17831;DHT22;9040;51.332;12.406;2022-07-21T03:03:38;25.90;99.90
17831;DHT22;9040;51.332;12.406;2022-07-21T03:06:06;25.90;99.90
17831;DHT22;9040;51.332;12.406;2022-07-21T03:08:33;25.90;99.90
17831;DHT22;9040;51.332;12.406;2022-07-21T03:11:00;25.90;99.90
17831;DHT22;9040;51.332;12.406;2022-07-21T03:13:28;25.90;99.90
17831;DHT22;9040;51.332;12.406;2022-07-21T03:15:55;25.90;99.90
17831;DHT22;9040;51.332;12.406;2022-07-21T03:18:22;25.90;99.90
17831;DHT22;9040;51.332;12.406;2022-07-21T03:20:51;25.90;99.90
17831;DHT22;9040;51.332;12.406;2022-07-21T03:23:18;25.90;99.90
17831;DHT22;9040;51.332;12.406;2022-07-21T03:25:44;25.90;99.90
17831;DHT22;9040;51.332;12.406;2022-07-21T03:28:11;25.90;99.90
17831;DHT22;9040;51.332;12.406;2022-07-21T03:30:39;26.00;99.90
17831;DHT22;9040;51.332;12.406;2022-07-21T03:33:06;26.10;99.90
17831;DHT22;9040;51.332;12.406;2022-07-21T03:35:33;26.00;99.90
17831;DHT22;9040;51.332;12.406;2022-07-21T03:38:03;25.90;99.90
17831;DHT22;9040;51.332;12.406;2022-07-21T03:40:33;25.90;99.90
17831;DHT22;9040;51.332;12.406;2022-07-21T03:43:03;25.80;99.90
17831;DHT22;9040;51.332;12.406;2022-07-21T03:45:31;25.80;99.90
17831;DHT22;9040;51.332;12.406;2022-07-21T03:48:00;25.70;99.90
17831;DHT22;9040;51.332;12.406;2022-07-21T03:50:28;25.60;99.90
17831;DHT22;9040;51.332;12.406;2022-07-21T03:52:54;25.60;99.90
17831;DHT22;9040;51.332;12.406;2022-07-21T03:55:23;25.50;99.90
17831;DHT22;9040;51.332;12.406;2022-07-21T03:57:52;25.50;99.90
17831;DHT22;9040;51.332;12.406;2022-07-21T04:00:22;25.50;99.90
17831;DHT22;9040;51.332;12.406;2022-07-21T04:02:50;25.40;99.90
17831;DHT22;9040;51.332;12.406;2022-07-21T04:05:17;25.40;99.90
17831;DHT22;9040;51.332;12.406;2022-07-21T04:07:46;25.30;99.90
17831;DHT22;9040;51.332;12.406;2022-07-21T04:10:17;25.30;99.90
17831;DHT22;9040;51.332;12.406;2022-07-21T04:12:45;25.30;99.90
17831;DHT22;9040;51.332;12.406;2022-07-21T04:15:13;25.30;99.90
17831;DHT22;9040;51.332;12.406;2022-07-21T04:17:40;25.40;99.90
17831;DHT22;9040;51.332;12.406;2022-07-21T04:20:09;25.30;99.90
17831;DHT22;9040;51.332;12.406;2022-07-21T04:22:36;25.30;99.90
17831;DHT22;9040;51.332;12.406;2022-07-21T04:25:04;25.40;99.90
17831;DHT22;9040;51.332;12.406;2022-07-21T04:27:32;25.50;99.90
17831;DHT22;9040;51.332;12.406;2022-07-21T04:30:00;25.50;99.90
17831;DHT22;9040;51.332;12.406;2022-07-21T04:32:27;25.50;99.90
17831;DHT22;9040;51.332;12.406;2022-07-21T04:34:54;25.60;99.90
17831;DHT22;9040;51.332;12.406;2022-07-21T04:37:21;25.70;99.90
17831;DHT22;9040;51.332;12.406;2022-07-21T04:39:48;25.80;99.90
17831;DHT22;9040;51.332;12.406;2022-07-21T04:42:15;25.80;99.90
17831;DHT22;9040;51.332;12.406;2022-07-21T04:44:42;25.80;99.90
17831;DHT22;9040;51.332;12.406;2022-07-21T04:47:10;25.90;99.90
17831;DHT22;9040;51.332;12.406;2022-07-21T04:49:37;25.90;99.90
17831;DHT22;9040;51.332;12.406;2022-07-21T04:52:05;25.90;99.90
17831;DHT22;9040;51.332;12.406;2022-07-21T04:54:32;26.10;99.90
17831;DHT22;9040;51.332;12.406;2022-07-21T04:56:59;26.20;99.90
17831;DHT22;9040;51.332;12.406;2022-07-21T04:59:28;26.10;99.90
17831;DHT22;9040;51.332;12.406;2022-07-21T05:01:55;26.10;99.90
17831;DHT22;9040;51.332;12.406;2022-07-21T05:04:23;26.10;99.90
17831;DHT22;9040;51.332;12.406;2022-07-21T05:06:50;26.20;99.90
17831;DHT22;9040;51.332;12.406;2022-07-21T05:09:17;26.20;99.90
17831;DHT22;9040;51.332;12.406;2022-07-21T05:11:44;26.20;99.90
17831;DHT22;9040;51.332;12.406;2022-07-21T05:14:11;26.20;99.90
17831;DHT22;9040;51.332;12.406;2022-07-21T05:16:38;26.20;99.90
17831;DHT22;9040;51.332;12.406;2022-07-21T05:19:05;26.20;99.90
17831;DHT22;9040;51.332;12.406;2022-07-21T05:21:33;26.10;99.90
17831;DHT22;9040;51.332;12.406;2022-07-21T05:24:00;26.00;99.90
17831;DHT22;9040;51.332;12.406;2022-07-21T05:26:27;26.00;99.90
17831;DHT22;9040;51.332;12.406;2022-07-21T05:28:53;26.00;99.90
17831;DHT22;9040;51.332;12.406;2022-07-21T05:31:20;26.10;99.90
17831;DHT22;9040;51.332;12.406;2022-07-21T05:33:47;26.10;99.90
17831;DHT22;9040;51.332;12.406;2022-07-21T05:36:14;26.10;99.90
17831;DHT22;9040;51.332;12.406;2022-07-21T05:38:42;26.10;99.90
17831;DHT22;9040;51.332;12.406;2022-07-21T05:41:09;26.10;99.90
17831;DHT22;9040;51.332;12.406;2022-07-21T05:43:36;26.10;99.90
17831;DHT22;9040;51.332;12.406;2022-07-21T05:46:03;26.20;99.90
17831;DHT22;9040;51.332;12.406;2022-07-21T05:48:30;26.30;99.90
17831;DHT22;9040;51.332;12.406;2022-07-21T05:50:57;26.20;99.90
17831;DHT22;9040;51.332;12.406;2022-07-21T05:53:24;26.20;99.90
17831;DHT22;9040;51.332;12.406;2022-07-21T05:55:52;26.20;99.90
17831;DHT22;9040;51.332;12.406;2022-07-21T05:58:19;26.20;99.90
17831;DHT22;9040;51.332;12.406;2022-07-21T06:00:49;26.20;99.90
17831;DHT22;9040;51.332;12.406;2022-07-21T06:03:33;26.20;99.90
17831;DHT22;9040;51.332;12.406;2022-07-21T06:06:00;26.10;99.90
17831;DHT22;9040;51.332;12.406;2022-07-21T06:08:27;26.00;99.90
17831;DHT22;9040;51.332;12.406;2022-07-21T06:10:56;26.00;99.90
17831;DHT22;9040;51.332;12.406;2022-07-21T06:13:23;25.90;99.90
17831;DHT22;9040;51.332;12.406;2022-07-21T06:15:50;25.80;99.90
17831;DHT22;9040;51.332;12.406;2022-07-21T06:18:17;25.80;99.90
17831;DHT22;9040;51.332;12.406;2022-07-21T06:20:44;25.70;99.90
17831;DHT22;9040;51.332;12.406;2022-07-21T06:23:11;25.70;99.90
17831;DHT22;9040;51.332;12.406;2022-07-21T06:25:38;25.70;99.90
17831;DHT22;9040;51.332;12.406;2022-07-21T06:28:06;25.70;99.90
17831;DHT22;9040;51.332;12.406;2022-07-21T06:30:33;25.70;99.90
17831;DHT22;9040;51.332;12.406;2022-07-21T06:33:00;25.70;99.90
17831;DHT22;9040;51.332;12.406;2022-07-21T06:35:26;25.80;99.90
17831;DHT22;9040;51.332;12.406;2022-07-21T06:37:53;25.80;99.90
17831;DHT22;9040;51.332;12.406;2022-07-21T06:40:20;25.90;99.90
17831;DHT22;9040;51.332;12.406;2022-07-21T06:42:47;26.00;99.90
17831;DHT22;9040;51.332;12.406;2022-07-21T06:45:15;26.10;99.90
17831;DHT22;9040;51.332;12.406;2022-07-21T06:47:42;26.20;99.90
17831;DHT22;9040;51.332;12.406;2022-07-21T06:50:10;26.30;99.90
17831;DHT22;9040;51.332;12.406;2022-07-21T06:52:38;26.20;99.90
17831;DHT22;9040;51.332;12.406;2022-07-21T06:55:06;26.20;99.90
17831;DHT22;9040;51.332;12.406;2022-07-21T06:57:34;26.00;99.90
17831;DHT22;9040;51.332;12.406;2022-07-21T07:00:02;26.00;99.90
17831;DHT22;9040;51.332;12.406;2022-07-21T07:02:31;26.10;99.90
17831;DHT22;9040;51.332;12.406;2022-07-21T07:04:57;26.10;99.90
17831;DHT22;9040;51.332;12.406;2022-07-21T07:07:24;26.20;99.90
17831;DHT22;9040;51.332;12.406;2022-07-21T07:09:51;26.20;99.90
17831;DHT22;9040;51.332;12.406;2022-07-21T07:12:18;26.30;99.90
17831;DHT22;9040;51.332;12.406;2022-07-21T07:14:45;26.20;99.90
17831;DHT22;9040;51.332;12.406;2022-07-21T07:17:15;26.30;99.90
17831;DHT22;9040;51.332;12.406;2022-07-21T07:19:45;26.50;99.90
17831;DHT22;9040;51.332;12.406;2022-07-21T07:22:12;26.50;99.90
17831;DHT22;9040;51.332;12.406;2022-07-21T07:24:39;26.50;99.90
17831;DHT22;9040;51.332;12.406;2022-07-21T07:27:06;26.50;99.90
17831;DHT22;9040;51.332;12.406;2022-07-21T07:29:33;26.60;99.90
17831;DHT22;9040;51.332;12.406;2022-07-21T07:32:00;26.60;99.90
17831;DHT22;9040;51.332;12.406;2022-07-21T07:34:27;26.50;99.90
17831;DHT22;9040;51.332;12.406;2022-07-21T07:36:55;26.50;99.90
17831;DHT22;9040;51.332;12.406;2022-07-21T07:39:22;26.50;99.90
17831;DHT22;9040;51.332;12.406;2022-07-21T07:41:49;26.50;99.90
17831;DHT22;9040;51.332;12.406;2022-07-21T07:44:15;26.50;99.90
17831;DHT22;9040;51.332;12.406;2022-07-21T07:46:42;26.60;99.90
17831;DHT22;9040;51.332;12.406;2022-07-21T07:49:09;26.60;99.90
17831;DHT22;9040;51.332;12.406;2022-07-21T07:51:36;26.60;99.90
17831;DHT22;9040;51.332;12.406;2022-07-21T07:54:04;26.60;99.90
17831;DHT22;9040;51.332;12.406;2022-07-21T07:56:32;26.60;99.90
17831;DHT22;9040;51.332;12.406;2022-07-21T07:58:58;26.50;99.90
17831;DHT22;9040;51.332;12.406;2022-07-21T08:01:25;26.50;99.90
17831;DHT22;9040;51.332;12.406;2022-07-21T08:03:52;26.60;99.90
17831;DHT22;9040;51.332;12.406;2022-07-21T08:06:19;26.60;99.90
17831;DHT22;9040;51.332;12.406;2022-07-21T08:08:46;26.80;99.90
17831;DHT22;9040;51.332;12.406;2022-07-21T08:11:14;26.80;99.90
17831;DHT22;9040;51.332;12.406;2022-07-21T08:13:41;26.90;99.90
17831;DHT22;9040;51.332;12.406;2022-07-21T08:16:08;27.10;99.90
17831;DHT22;9040;51.332;12.406;2022-07-21T08:18:35;27.20;99.90
17831;DHT22;9040;51.332;12.406;2022-07-21T08:21:02;27.40;99.90
17831;DHT22;9040;51.332;12.406;2022-07-21T08:23:28;27.30;99.90
17831;DHT22;9040;51.332;12.406;2022-07-21T08:25:55;27.10;99.90
17831;DHT22;9040;51.332;12.406;2022-07-21T08:28:24;27.00;99.90
17831;DHT22;9040;51.332;12.406;2022-07-21T08:30:51;26.90;99.90
17831;DHT22;9040;51.332;12.406;2022-07-21T08:33:18;26.80;99.90
17831;DHT22;9040;51.332;12.406;2022-07-21T08:35:45;26.70;99.90
17831;DHT22;9040;51.332;12.406;2022-07-21T08:38:12;26.50;99.90
17831;DHT22;9040;51.332;12.406;2022-07-21T08:40:40;26.30;99.90
17831;DHT22;9040;51.332;12.406;2022-07-21T08:43:07;26.40;99.90
17831;DHT22;9040;51.332;12.406;2022-07-21T08:45:36;26.40;99.90
17831;DHT22;9040;51.332;12.406;2022-07-21T08:48:04;26.40;99.90
17831;DHT22;9040;51.332;12.406;2022-07-21T08:50:33;26.30;99.90
17831;DHT22;9040;51.332;12.406;2022-07-21T08:53:00;26.30;99.90
17831;DHT22;9040;51.332;12.406;2022-07-21T08:55:28;26.30;99.90
17831;DHT22;9040;51.332;12.406;2022-07-21T08:57:56;26.20;99.90
17831;DHT22;9040;51.332;12.406;2022-07-21T09:00:23;26.10;99.90
17831;DHT22;9040;51.332;12.406;2022-07-21T09:03:08;26.10;99.90
17831;DHT22;9040;51.332;12.406;2022-07-21T09:05:35;26.00;99.90
17831;DHT22;9040;51.332;12.406;2022-07-21T09:08:02;26.00;99.90
17831;DHT22;9040;51.332;12.406;2022-07-21T09:10:30;25.90;99.90
17831;DHT22;9040;51.332;12.406;2022-07-21T09:13:00;25.90;99.90
17831;DHT22;9040;51.332;12.406;2022-07-21T09:15:29;25.80;99.90
17831;DHT22;9040;51.332;12.406;2022-07-21T09:18:15;25.60;99.90
17831;DHT22;9040;51.332;12.406;2022-07-21T09:20:48;25.50;99.90
17831;DHT22;9040;51.332;12.406;2022-07-21T09:23:17;25.40;99.90
17831;DHT22;9040;51.332;12.406;2022-07-21T09:25:46;25.40;99.90
17831;DHT22;9040;51.332;12.406;2022-07-21T09:28:15;25.30;99.90
17831;DHT22;9040;51.332;12.406;2022-07-21T09:30:58;25.20;99.90
17831;DHT22;9040;51.332;12.406;2022-07-21T09:33:28;25.10;99.90
17831;DHT22;9040;51.332;12.406;2022-07-21T09:36:00;25.00;99.90
17831;DHT22;9040;51.332;12.406;2022-07-21T09:38:29;25.00;99.90
17831;DHT22;9040;51.332;12.406;2022-07-21T09:41:04;24.90;99.90
17831;DHT22;9040;51.332;12.406;2022-07-21T09:43:33;24.90;99.90
17831;DHT22;9040;51.332;12.406;2022-07-21T09:46:03;24.90;99.90
17831;DHT22;9040;51.332;12.406;2022-07-21T09:48:34;24.90;99.90
17831;DHT22;9040;51.332;12.406;2022-07-21T09:51:22;24.80;99.90
17831;DHT22;9040;51.332;12.406;2022-07-21T09:53:51;24.60;99.90
17831;DHT22;9040;51.332;12.406;2022-07-21T09:56:19;24.60;99.90
17831;DHT22;9040;51.332;12.406;2022-07-21T09:58:48;24.60;99.90
17831;DHT22;9040;51.332;12.406;2022-07-21T10:01:16;24.50;99.90
17831;DHT22;9040;51.332;12.406;2022-07-21T10:03:45;24.50;99.90
17831;DHT22;9040;51.332;12.406;2022-07-21T10:06:15;24.50;99.90
17831;DHT22;9040;51.332;12.406;2022-07-21T10:08:42;24.60;99.90
17831;DHT22;9040;51.332;12.406;2022-07-21T10:11:10;24.60;99.90
17831;DHT22;9040;51.332;12.406;2022-07-21T10:13:38;24.80;99.90
17831;DHT22;9040;51.332;12.406;2022-07-21T10:16:06;24.90;99.90
17831;DHT22;9040;51.332;12.406;2022-07-21T10:18:37;25.00;99.90
17831;DHT22;9040;51.332;12.406;2022-07-21T10:21:26;25.00;99.90
17831;DHT22;9040;51.332;12.406;2022-07-21T10:23:56;25.00;99.90
17831;DHT22;9040;51.332;12.406;2022-07-21T10:26:23;25.10;99.90
17831;DHT22;9040;51.332;12.406;2022-07-21T10:28:50;25.30;99.90
17831;DHT22;9040;51.332;12.406;2022-07-21T10:31:18;25.40;99.90
17831;DHT22;9040;51.332;12.406;2022-07-21T10:33:57;25.50;99.90
17831;DHT22;9040;51.332;12.406;2022-07-21T10:36:43;25.70;99.90
17831;DHT22;9040;51.332;12.406;2022-07-21T10:39:24;26.00;99.90
17831;DHT22;9040;51.332;12.406;2022-07-21T10:41:54;26.20;99.90
17831;DHT22;9040;51.332;12.406;2022-07-21T10:44:44;26.20;99.90
17831;DHT22;9040;51.332;12.406;2022-07-21T10:47:12;26.30;99.90
17831;DHT22;9040;51.332;12.406;2022-07-21T10:49:46;26.50;99.90
17831;DHT22;9040;51.332;12.406;2022-07-21T10:55:20;26.70;99.90
17831;DHT22;9040;51.332;12.406;2022-07-21T10:58:14;26.70;99.90
17831;DHT22;9040;51.332;12.406;2022-07-21T11:00:49;26.80;99.90
17831;DHT22;9040;51.332;12.406;2022-07-21T11:03:22;26.90;99.90
17831;DHT22;9040;51.332;12.406;2022-07-21T11:06:20;26.90;99.90
17831;DHT22;9040;51.332;12.406;2022-07-21T11:08:50;27.00;99.90
17831;DHT22;9040;51.332;12.406;2022-07-21T11:11:20;27.30;99.90
17831;DHT22;9040;51.332;12.406;2022-07-21T11:14:14;27.40;99.90
17831;DHT22;9040;51.332;12.406;2022-07-21T11:17:07;27.50;99.90
17831;DHT22;9040;51.332;12.406;2022-07-21T11:19:40;27.60;99.90
17831;DHT22;9040;51.332;12.406;2022-07-21T11:22:14;27.70;99.90
17831;DHT22;9040;51.332;12.406;2022-07-21T11:24:42;27.70;99.90
17831;DHT22;9040;51.332;12.406;2022-07-21T11:27:12;27.70;99.90
17831;DHT22;9040;51.332;12.406;2022-07-21T11:29:40;27.80;99.90
17831;DHT22;9040;51.332;12.406;2022-07-21T11:32:08;27.60;99.90
17831;DHT22;9040;51.332;12.406;2022-07-21T11:34:40;27.60;99.90
17831;DHT22;9040;51.332;12.406;2022-07-21T11:37:09;27.60;99.90
17831;DHT22;9040;51.332;12.406;2022-07-21T11:39:36;27.70;99.90
17831;DHT22;9040;51.332;12.406;2022-07-21T11:42:05;27.80;99.90
17831;DHT22;9040;51.332;12.406;2022-07-21T11:44:35;28.00;99.90
17831;DHT22;9040;51.332;12.406;2022-07-21T11:47:03;28.10;99.90
17831;DHT22;9040;51.332;12.406;2022-07-21T11:49:31;28.30;99.90
17831;DHT22;9040;51.332;12.406;2022-07-21T11:51:59;28.40;99.90
17831;DHT22;9040;51.332;12.406;2022-07-21T11:54:30;28.40;99.90
17831;DHT22;9040;51.332;12.406;2022-07-21T11:56:59;28.40;99.90
17831;DHT22;9040;51.332;12.406;2022-07-21T11:59:27;28.50;99.90
17831;DHT22;9040;51.332;12.406;2022-07-21T12:02:01;28.50;99.90
17831;DHT22;9040;51.332;12.406;2022-07-21T12:04:42;28.40;99.90
17831;DHT22;9040;51.332;12.406;2022-07-21T12:07:18;28.40;99.90
17831;DHT22;9040;51.332;12.406;2022-07-21T12:09:48;28.40;99.90
17831;DHT22;9040;51.332;12.406;2022-07-21T12:12:15;28.50;99.90
17831;DHT22;9040;51.332;12.406;2022-07-21T12:14:44;28.60;99.90
17831;DHT22;9040;51.332;12.406;2022-07-21T12:17:13;28.70;99.90
17831;DHT22;9040;51.332;12.406;2022-07-21T12:19:41;28.80;99.90
17831;DHT22;9040;51.332;12.406;2022-07-21T12:22:08;28.90;99.90
17831;DHT22;9040;51.332;12.406;2022-07-21T12:24:52;29.10;99.90
17831;DHT22;9040;51.332;12.406;2022-07-21T12:27:19;29.30;99.90
17831;DHT22;9040;51.332;12.406;2022-07-21T12:29:47;29.50;99.90
17831;DHT22;9040;51.332;12.406;2022-07-21T12:32:45;29.60;99.90
17831;DHT22;9040;51.332;12.406;2022-07-21T12:35:19;29.70;99.90
17831;DHT22;9040;51.332;12.406;2022-07-21T12:38:03;29.90;99.90
17831;DHT22;9040;51.332;12.406;2022-07-21T12:40:32;29.90;99.90
17831;DHT22;9040;51.332;12.406;2022-07-21T12:43:06;30.30;99.90
17831;DHT22;9040;51.332;12.406;2022-07-21T12:45:44;30.90;99.90
17831;DHT22;9040;51.332;12.406;2022-07-21T12:48:14;31.40;99.90
17831;DHT22;9040;51.332;12.406;2022-07-21T12:51:00;31.50;99.90
17831;DHT22;9040;51.332;12.406;2022-07-21T12:53:28;32.30;99.90
17831;DHT22;9040;51.332;12.406;2022-07-21T12:55:55;33.50;99.90
17831;DHT22;9040;51.332;12.406;2022-07-21T12:58:22;34.80;99.90
17831;DHT22;9040;51.332;12.406;2022-07-21T13:00:49;35.90;99.90
17831;DHT22;9040;51.332;12.406;2022-07-21T13:03:17;36.80;99.90
17831;DHT22;9040;51.332;12.406;2022-07-21T13:05:44;37.40;99.90
17831;DHT22;9040;51.332;12.406;2022-07-21T13:08:11;37.70;97.70
17831;DHT22;9040;51.332;12.406;2022-07-21T13:10:38;38.40;95.10
17831;DHT22;9040;51.332;12.406;2022-07-21T13:13:05;38.80;94.10
17831;DHT22;9040;51.332;12.406;2022-07-21T13:15:32;39.10;91.80
17831;DHT22;9040;51.332;12.406;2022-07-21T13:17:59;39.30;89.60
17831;DHT22;9040;51.332;12.406;2022-07-21T13:20:27;39.40;90.40
17831;DHT22;9040;51.332;12.406;2022-07-21T13:22:54;39.70;88.20
17831;DHT22;9040;51.332;12.406;2022-07-21T13:25:21;40.00;86.60
17831;DHT22;9040;51.332;12.406;2022-07-21T13:27:48;40.00;84.40
17831;DHT22;9040;51.332;12.406;2022-07-21T13:30:16;39.80;83.80
17831;DHT22;9040;51.332;12.406;2022-07-21T13:32:43;38.50;85.00
17831;DHT22;9040;51.332;12.406;2022-07-21T13:35:11;37.00;89.00
17831;DHT22;9040;51.332;12.406;2022-07-21T13:37:39;35.30;91.20
17831;DHT22;9040;51.332;12.406;2022-07-21T13:40:07;34.00;93.50
17831;DHT22;9040;51.332;12.406;2022-07-21T13:42:34;32.90;96.00
17831;DHT22;9040;51.332;12.406;2022-07-21T13:45:01;32.20;98.60
17831;DHT22;9040;51.332;12.406;2022-07-21T13:47:28;31.70;99.90
17831;DHT22;9040;51.332;12.406;2022-07-21T13:49:55;31.20;99.90
17831;DHT22;9040;51.332;12.406;2022-07-21T13:52:22;31.20;99.90
17831;DHT22;9040;51.332;12.406;2022-07-21T13:54:50;31.20;99.90
17831;DHT22;9040;51.332;12.406;2022-07-21T13:57:17;31.20;99.90
17831;DHT22;9040;51.332;12.406;2022-07-21T13:59:43;31.90;99.90
17831;DHT22;9040;51.332;12.406;2022-07-21T14:02:10;32.50;99.90
17831;DHT22;9040;51.332;12.406;2022-07-21T14:04:37;32.60;99.90
17831;DHT22;9040;51.332;12.406;2022-07-21T14:07:04;32.20;99.90
17831;DHT22;9040;51.332;12.406;2022-07-21T14:09:31;31.80;99.90
17831;DHT22;9040;51.332;12.406;2022-07-21T14:11:59;31.50;99.90
17831;DHT22;9040;51.332;12.406;2022-07-21T14:14:26;31.20;99.90
17831;DHT22;9040;51.332;12.406;2022-07-21T14:16:53;31.00;99.90
17831;DHT22;9040;51.332;12.406;2022-07-21T14:19:20;30.80;99.90
17831;DHT22;9040;51.332;12.406;2022-07-21T14:21:47;30.70;99.90
17831;DHT22;9040;51.332;12.406;2022-07-21T14:24:15;30.70;99.90
17831;DHT22;9040;51.332;12.406;2022-07-21T14:27:02;31.50;99.90
17831;DHT22;9040;51.332;12.406;2022-07-21T14:29:29;33.00;99.90
17831;DHT22;9040;51.332;12.406;2022-07-21T14:31:56;33.00;99.90
17831;DHT22;9040;51.332;12.406;2022-07-21T14:34:23;32.70;99.90
17831;DHT22;9040;51.332;12.406;2022-07-21T14:36:50;32.50;99.90
17831;DHT22;9040;51.332;12.406;2022-07-21T14:39:17;33.60;99.90
17831;DHT22;9040;51.332;12.406;2022-07-21T14:41:44;34.10;99.90
17831;DHT22;9040;51.332;12.406;2022-07-21T14:44:13;34.90;99.90
17831;DHT22;9040;51.332;12.406;2022-07-21T14:46:40;35.40;98.50
17831;DHT22;9040;51.332;12.406;2022-07-21T14:49:07;35.30;98.20
17831;DHT22;9040;51.332;12.406;2022-07-21T14:51:34;35.20;98.70
17831;DHT22;9040;51.332;12.406;2022-07-21T14:54:02;35.40;97.10
17831;DHT22;9040;51.332;12.406;2022-07-21T14:56:28;35.20;96.60
17831;DHT22;9040;51.332;12.406;2022-07-21T14:58:55;34.40;96.20
17831;DHT22;9040;51.332;12.406;2022-07-21T15:01:25;33.70;97.50
17831;DHT22;9040;51.332;12.406;2022-07-21T15:03:52;33.10;98.90
17831;DHT22;9040;51.332;12.406;2022-07-21T15:06:19;32.60;99.50
17831;DHT22;9040;51.332;12.406;2022-07-21T15:08:46;32.20;98.90
17831;DHT22;9040;51.332;12.406;2022-07-21T15:11:15;31.90;94.50
17831;DHT22;9040;51.332;12.406;2022-07-21T15:13:43;31.60;92.10
17831;DHT22;9040;51.332;12.406;2022-07-21T15:16:10;31.60;90.60
17831;DHT22;9040;51.332;12.406;2022-07-21T15:18:38;31.50;88.60
17831;DHT22;9040;51.332;12.406;2022-07-21T15:21:05;31.30;89.90
17831;DHT22;9040;51.332;12.406;2022-07-21T15:23:32;31.50;89.50
17831;DHT22;9040;51.332;12.406;2022-07-21T15:25:59;31.90;88.60
17831;DHT22;9040;51.332;12.406;2022-07-21T15:28:26;32.10;87.00
17831;DHT22;9040;51.332;12.406;2022-07-21T15:30:53;31.70;86.80
17831;DHT22;9040;51.332;12.406;2022-07-21T15:33:20;31.50;86.70
17831;DHT22;9040;51.332;12.406;2022-07-21T15:35:48;31.60;86.60
17831;DHT22;9040;51.332;12.406;2022-07-21T15:38:19;31.70;86.30
17831;DHT22;9040;51.332;12.406;2022-07-21T15:40:46;32.00;84.40
17831;DHT22;9040;51.332;12.406;2022-07-21T15:43:13;32.20;83.90